Time,TemperatureF,DewpointF,PressureIn,WindDirection,WindDirectionDegrees,WindSpeedMPH,WindSpeedGustMPH,Humidity,HourlyPrecipIn,Conditions,Clouds,dailyrainin,SoftwareType,DateUTC
2013-06-18 00:01:00,64.1,57.1,30.04,NNE,22,0.0,0.0,78,0.00,,BKN100,0.00,VWS V14.00,2013-06-18 05:01:00,
2013-06-18 00:06:00,64.0,57.0,30.04,NNE,22,0.0,0.0,78,0.00,,BKN100,0.00,VWS V14.00,2013-06-18 05:06:00,
2013-06-18 00:11:00,63.8,57.2,30.04,NNE,22,0.0,0.0,79,0.00,,BKN100,0.00,VWS V14.00,2013-06-18 05:11:00,
2013-06-18 00:16:00,63.8,57.2,30.04,NNE,22,0.0,0.0,79,0.00,,BKN100,0.00,VWS V14.00,2013-06-18 05:16:00,
2013-06-18 00:21:00,64.0,57.7,30.04,NNE,22,0.0,0.0,80,0.00,,BKN100,0.00,VWS V14.00,2013-06-18 05:21:00,
2013-06-18 00:27:00,64.1,57.8,30.05,NNE,22,0.0,0.0,80,0.00,,BKN100,0.00,VWS V14.00,2013-06-18 05:27:00,
2013-06-18 00:32:00,64.1,57.8,30.04,NNE,22,0.0,0.0,80,0.00,,BKN100,0.00,VWS V14.00,2013-06-18 05:32:00,
2013-06-18 00:37:00,64.1,57.8,30.05,NNE,22,0.0,0.0,80,0.00,,BKN100,0.00,VWS V14.00,2013-06-18 05:37:00,
2013-06-18 00:42:00,64.0,58.1,30.04,NNE,22,0.0,0.0,81,0.00,,BKN100,0.00,VWS V14.00,2013-06-18 05:42:00,
2013-06-18 00:47:00,63.9,58.0,30.04,NNE,22,0.0,0.0,81,0.00,,BKN100,0.00,VWS V14.00,2013-06-18 05:47:00,
2013-06-18 00:52:00,63.8,57.9,30.04,NNE,22,0.0,0.0,81,0.00,,BKN100,0.00,VWS V14.00,2013-06-18 05:52:00,
2013-06-18 00:57:00,63.6,57.7,30.04,NNE,22,0.0,0.0,81,0.00,,BKN100,0.00,VWS V14.00,2013-06-18 05:57:00,
2013-06-18 01:02:00,63.3,57.7,30.04,NNE,22,0.0,0.0,82,0.00,,BKN100,0.00,VWS V14.00,2013-06-18 06:02:00,
2013-06-18 01:07:00,63.1,57.9,30.04,NNE,22,0.0,0.0,83,0.00,,BKN110,0.00,VWS V14.00,2013-06-18 06:07:00,
2013-06-18 01:12:00,62.9,57.7,30.04,NNE,22,0.0,0.0,83,0.00,,BKN110,0.00,VWS V14.00,2013-06-18 06:12:00,
2013-06-18 01:17:00,62.7,57.8,30.05,NNE,22,0.0,0.0,84,0.00,,BKN110,0.00,VWS V14.00,2013-06-18 06:17:00,
2013-06-18 01:22:00,62.7,57.8,30.05,NNE,22,0.0,0.0,84,0.00,,BKN110,0.00,VWS V14.00,2013-06-18 06:22:00,
2013-06-18 01:27:00,62.6,57.7,30.05,NNE,22,0.0,0.0,84,0.00,,BKN110,0.00,VWS V14.00,2013-06-18 06:27:00,
2013-06-18 01:32:00,62.5,57.6,30.05,NNE,22,0.0,0.0,84,0.00,,BKN110,0.00,VWS V14.00,2013-06-18 06:32:00,
2013-06-18 01:37:00,62.3,57.7,30.05,NNE,22,0.0,0.0,85,0.00,,BKN110,0.00,VWS V14.00,2013-06-18 06:37:00,
2013-06-18 01:42:00,62.2,57.3,30.05,NNE,22,0.0,0.0,84,0.00,,BKN110,0.00,VWS V14.00,2013-06-18 06:42:00,
2013-06-18 01:47:00,62.0,57.5,30.05,NNE,22,0.0,0.0,85,0.00,,BKN110,0.00,VWS V14.00,2013-06-18 06:47:00,
2013-06-18 01:52:00,62.0,57.5,30.06,NNE,22,0.0,0.0,85,0.00,,BKN110,0.00,VWS V14.00,2013-06-18 06:52:00,
2013-06-18 01:57:00,61.9,57.3,30.05,NNE,22,0.0,0.0,85,0.00,,FEW100,0.00,VWS V14.00,2013-06-18 06:57:00,
2013-06-18 02:02:00,61.8,57.6,30.05,NNE,22,0.0,0.0,86,0.00,,FEW100,0.00,VWS V14.00,2013-06-18 07:02:00,
2013-06-18 02:07:00,61.7,57.5,30.05,NNE,22,0.0,0.0,86,0.00,,FEW100,0.00,VWS V14.00,2013-06-18 07:07:00,
2013-06-18 02:12:00,61.5,57.3,30.05,NNE,22,0.0,0.0,86,0.00,,FEW100,0.00,VWS V14.00,2013-06-18 07:12:00,
2013-06-18 02:17:00,61.3,57.1,30.06,NNE,22,0.0,0.0,86,0.00,,FEW100,0.00,VWS V14.00,2013-06-18 07:17:00,
2013-06-18 02:22:00,61.2,57.0,30.06,NNE,22,0.0,0.0,86,0.00,,FEW100,0.00,VWS V14.00,2013-06-18 07:22:00,
2013-06-18 02:27:00,61.0,56.8,30.06,NNE,22,0.0,0.0,86,0.00,,FEW100,0.00,VWS V14.00,2013-06-18 07:27:00,
2013-06-18 02:32:00,60.9,56.7,30.06,NNE,22,0.0,0.0,86,0.00,,FEW100,0.00,VWS V14.00,2013-06-18 07:32:00,
2013-06-18 02:37:00,60.7,56.8,30.06,NNE,22,0.0,0.0,87,0.00,,FEW100,0.00,VWS V14.00,2013-06-18 07:37:00,
2013-06-18 02:42:00,60.5,56.6,30.06,NNE,22,0.0,0.0,87,0.00,,FEW100,0.00,VWS V14.00,2013-06-18 07:42:00,
2013-06-18 02:47:00,60.2,56.3,30.06,NNE,22,0.0,0.0,87,0.00,,FEW100,0.00,VWS V14.00,2013-06-18 07:47:00,
2013-06-18 02:52:00,60.1,56.2,30.06,NNE,22,0.0,0.0,87,0.00,,FEW100,0.00,VWS V14.00,2013-06-18 07:52:00,
2013-06-18 02:57:00,59.8,55.9,30.06,NNE,22,0.0,0.0,87,0.00,,CLR,0.00,VWS V14.00,2013-06-18 07:57:00,
2013-06-18 03:02:00,59.6,55.7,30.06,NNE,22,0.0,0.0,87,0.00,,CLR,0.00,VWS V14.00,2013-06-18 08:02:00,
2013-06-18 03:07:00,59.3,55.8,30.06,NNE,22,0.0,0.0,88,0.00,,CLR,0.00,VWS V14.00,2013-06-18 08:07:00,
2013-06-18 03:13:00,59.1,55.5,30.06,NNE,22,0.0,0.0,88,0.00,,CLR,0.00,VWS V14.00,2013-06-18 08:13:00,
2013-06-18 03:18:00,58.9,55.7,30.06,NNE,22,0.0,0.0,89,0.00,,CLR,0.00,VWS V14.00,2013-06-18 08:18:00,
2013-06-18 03:23:00,58.9,55.7,30.06,NNE,22,0.0,0.0,89,0.00,,CLR,0.00,VWS V14.00,2013-06-18 08:23:00,
2013-06-18 03:28:00,59.1,55.9,30.06,NNE,22,0.0,0.0,89,0.00,,CLR,0.00,VWS V14.00,2013-06-18 08:28:00,
2013-06-18 03:33:00,59.2,56.0,30.06,NNE,22,0.0,0.0,89,0.00,,CLR,0.00,VWS V14.00,2013-06-18 08:33:00,
2013-06-18 03:38:00,59.2,55.7,30.06,NNE,22,0.0,0.0,88,0.00,,CLR,0.00,VWS V14.00,2013-06-18 08:38:00,
2013-06-18 03:43:00,59.2,56.0,30.06,NNE,23,0.0,0.0,89,0.00,,CLR,0.00,VWS V14.00,2013-06-18 08:43:00,
2013-06-18 03:48:00,59.1,55.9,30.06,NNE,23,0.0,0.0,89,0.00,,CLR,0.00,VWS V14.00,2013-06-18 08:48:00,
2013-06-18 03:53:00,59.1,55.5,30.07,NNE,23,0.0,0.0,88,0.00,,CLR,0.00,VWS V14.00,2013-06-18 08:53:00,
2013-06-18 03:58:00,59.1,55.5,30.07,NNE,23,0.0,0.0,88,0.00,,CLR,0.00,VWS V14.00,2013-06-18 08:58:00,
2013-06-18 04:03:00,59.0,55.5,30.07,NNE,23,0.0,0.0,88,0.00,,CLR,0.00,VWS V14.00,2013-06-18 09:03:00,
2013-06-18 04:08:00,59.0,55.5,30.07,NNE,23,0.0,0.0,88,0.00,,CLR,0.00,VWS V14.00,2013-06-18 09:08:00,
2013-06-18 04:13:00,58.9,55.4,30.07,NNE,23,0.0,0.0,88,0.00,,CLR,0.00,VWS V14.00,2013-06-18 09:13:00,
2013-06-18 04:18:00,58.8,55.3,30.07,NNE,23,0.0,0.0,88,0.00,,CLR,0.00,VWS V14.00,2013-06-18 09:18:00,
2013-06-18 04:23:00,58.8,55.3,30.07,NNE,23,0.0,0.0,88,0.00,,CLR,0.00,VWS V14.00,2013-06-18 09:23:00,
2013-06-18 04:28:00,58.8,55.6,30.07,NNE,24,0.0,0.0,89,0.00,,CLR,0.00,VWS V14.00,2013-06-18 09:28:00,
2013-06-18 04:33:00,58.9,55.4,30.07,NNE,24,0.0,0.0,88,0.00,,CLR,0.00,VWS V14.00,2013-06-18 09:33:00,
2013-06-18 04:38:00,59.1,55.9,30.07,NNE,24,0.0,0.0,89,0.00,,CLR,0.00,VWS V14.00,2013-06-18 09:38:00,
2013-06-18 04:43:00,59.1,55.5,30.07,NNE,24,0.0,0.0,88,0.00,,CLR,0.00,VWS V14.00,2013-06-18 09:43:00,
2013-06-18 04:48:00,59.1,55.5,30.07,NNE,25,0.0,0.0,88,0.00,,CLR,0.00,VWS V14.00,2013-06-18 09:48:00,
2013-06-18 04:53:00,59.1,55.5,30.07,NNE,26,0.0,0.0,88,0.00,,CLR,0.00,VWS V14.00,2013-06-18 09:53:00,
2013-06-18 04:58:00,58.9,55.4,30.07,NNE,33,0.0,0.0,88,0.00,,CLR,0.00,VWS V14.00,2013-06-18 09:58:00,
2013-06-18 05:03:00,58.8,55.3,30.07,NNE,33,0.0,0.0,88,0.00,,SCT038,0.00,VWS V14.00,2013-06-18 10:03:00,
2013-06-18 05:08:00,58.7,55.2,30.07,NNE,33,0.0,0.0,88,0.00,,SCT038,0.00,VWS V14.00,2013-06-18 10:08:00,
2013-06-18 05:13:00,58.5,55.0,30.08,NNE,33,0.0,0.0,88,0.00,,SCT038,0.00,VWS V14.00,2013-06-18 10:13:00,
2013-06-18 05:18:00,58.3,54.8,30.08,NNE,33,0.0,0.0,88,0.00,,SCT038,0.00,VWS V14.00,2013-06-18 10:18:00,
2013-06-18 05:23:00,58.2,55.0,30.08,NNE,33,0.0,0.0,89,0.00,,SCT038,0.00,VWS V14.00,2013-06-18 10:23:00,
2013-06-18 05:28:00,58.0,54.8,30.08,NNE,33,0.0,0.0,89,0.00,,SCT038,0.00,VWS V14.00,2013-06-18 10:28:00,
2013-06-18 05:33:00,58.0,54.8,30.09,NE,34,0.0,0.0,89,0.00,,SCT038,0.00,VWS V14.00,2013-06-18 10:33:00,
2013-06-18 05:38:00,57.9,54.7,30.08,NE,34,0.0,0.0,89,0.00,,SCT038,0.00,VWS V14.00,2013-06-18 10:38:00,
2013-06-18 05:43:00,57.7,54.8,30.09,NE,34,0.0,0.0,90,0.00,,SCT038,0.00,VWS V14.00,2013-06-18 10:43:00,
2013-06-18 05:48:00,57.6,54.4,30.09,NE,34,0.0,0.0,89,0.00,,SCT038,0.00,VWS V14.00,2013-06-18 10:48:00,
2013-06-18 05:53:00,57.6,54.7,30.09,NE,34,0.0,0.0,90,0.00,,SCT038,0.00,VWS V14.00,2013-06-18 10:53:00,
2013-06-18 05:58:00,57.7,54.8,30.09,NE,34,0.0,0.0,90,0.00,,BKN040,0.00,VWS V14.00,2013-06-18 10:58:00,
2013-06-18 06:03:00,57.8,54.9,30.09,NE,35,0.0,0.0,90,0.00,,BKN040,0.00,VWS V14.00,2013-06-18 11:03:00,
2013-06-18 06:08:00,58.1,55.2,30.09,NE,35,0.0,0.0,90,0.00,,BKN040,0.00,VWS V14.00,2013-06-18 11:08:00,
2013-06-18 06:13:00,58.3,55.4,30.09,ENE,58,0.0,0.0,90,0.00,,BKN040,0.00,VWS V14.00,2013-06-18 11:13:00,
2013-06-18 06:18:00,58.4,55.2,30.09,ENE,58,0.0,0.0,89,0.00,,BKN040,0.00,VWS V14.00,2013-06-18 11:18:00,
2013-06-18 06:23:00,58.5,55.0,30.09,ENE,58,0.0,0.0,88,0.00,,BKN040,0.00,VWS V14.00,2013-06-18 11:23:00,
2013-06-18 06:28:00,58.5,55.0,30.09,ENE,63,0.0,0.0,88,0.00,,BKN040,0.00,VWS V14.00,2013-06-18 11:28:00,
2013-06-18 06:33:00,58.6,54.8,30.09,ENE,63,0.0,0.0,87,0.00,,BKN040,0.00,VWS V14.00,2013-06-18 11:33:00,
2013-06-18 06:38:00,58.6,54.4,30.09,East,81,0.0,1.0,86,0.00,,BKN040,0.00,VWS V14.00,2013-06-18 11:38:00,
2013-06-18 06:43:00,58.6,54.4,30.09,East,86,0.0,1.0,86,0.00,,BKN040,0.00,VWS V14.00,2013-06-18 11:43:00,
2013-06-18 06:48:00,58.7,54.5,30.10,East,86,0.0,1.0,86,0.00,,BKN040,0.00,VWS V14.00,2013-06-18 11:48:00,
2013-06-18 06:53:00,58.8,54.6,30.10,East,86,0.0,0.0,86,0.00,,BKN040,0.00,VWS V14.00,2013-06-18 11:53:00,
2013-06-18 06:58:00,58.9,54.4,30.10,East,86,0.0,0.0,85,0.00,,BKN040,0.00,VWS V14.00,2013-06-18 11:58:00,
2013-06-18 07:03:00,59.1,54.6,30.10,East,87,0.0,1.0,85,0.00,,FEW042,0.00,VWS V14.00,2013-06-18 12:03:00,
2013-06-18 07:08:00,59.2,54.7,30.10,East,87,0.0,1.0,85,0.00,,FEW042,0.00,VWS V14.00,2013-06-18 12:08:00,
2013-06-18 07:13:00,59.4,54.2,30.10,East,89,0.0,2.0,83,0.00,,FEW042,0.00,VWS V14.00,2013-06-18 12:13:00,
2013-06-18 07:18:00,59.7,54.2,30.10,East,92,0.0,2.0,82,0.00,,FEW042,0.00,VWS V14.00,2013-06-18 12:18:00,
2013-06-18 07:23:00,59.9,53.7,30.10,SE,145,1.0,5.0,80,0.00,,FEW042,0.00,VWS V14.00,2013-06-18 12:23:00,
2013-06-18 07:28:00,60.0,53.8,30.10,SE,143,0.0,5.0,80,0.00,,FEW042,0.00,VWS V14.00,2013-06-18 12:28:00,
2013-06-18 07:33:00,60.2,54.0,30.10,SE,145,0.0,4.0,80,0.00,,FEW042,0.00,VWS V14.00,2013-06-18 12:33:00,
2013-06-18 07:38:00,60.6,54.1,30.11,SE,146,6.0,7.0,79,0.00,,FEW042,0.00,VWS V14.00,2013-06-18 12:38:00,
2013-06-18 07:43:00,60.7,53.8,30.10,SE,143,0.0,4.0,78,0.00,,FEW042,0.00,VWS V14.00,2013-06-18 12:43:00,
2013-06-18 07:48:00,60.9,54.0,30.11,SSE,150,1.0,10.0,78,0.00,,FEW042,0.00,VWS V14.00,2013-06-18 12:48:00,
2013-06-18 07:53:00,61.0,53.8,30.11,SE,143,0.0,6.0,77,0.00,,FEW042,0.00,VWS V14.00,2013-06-18 12:53:00,
2013-06-18 07:58:00,61.2,53.6,30.10,SE,144,0.0,6.0,76,0.00,,CLR,0.00,VWS V14.00,2013-06-18 12:58:00,
2013-06-18 08:03:00,61.5,53.5,30.10,SE,140,0.0,6.0,75,0.00,,CLR,0.00,VWS V14.00,2013-06-18 13:03:00,
2013-06-18 08:08:00,61.8,53.8,30.11,SE,140,0.0,6.0,75,0.00,,CLR,0.00,VWS V14.00,2013-06-18 13:08:00,
2013-06-18 08:13:00,62.1,53.3,30.11,SE,136,0.0,1.0,73,0.00,,CLR,0.00,VWS V14.00,2013-06-18 13:13:00,
2013-06-18 08:18:00,62.3,53.2,30.11,SE,139,7.0,7.0,72,0.00,,CLR,0.00,VWS V14.00,2013-06-18 13:18:00,
2013-06-18 08:23:00,62.5,53.0,30.11,SE,145,0.0,4.0,71,0.00,,CLR,0.00,VWS V14.00,2013-06-18 13:23:00,
2013-06-18 08:29:00,62.7,53.2,30.11,SSE,151,0.0,5.0,71,0.00,,CLR,0.00,VWS V14.00,2013-06-18 13:29:00,
2013-06-18 08:34:00,63.2,53.3,30.11,SSE,151,1.0,3.0,70,0.00,,CLR,0.00,VWS V14.00,2013-06-18 13:34:00,
2013-06-18 08:39:00,63.5,53.2,30.11,SSE,153,0.0,5.0,69,0.00,,CLR,0.00,VWS V14.00,2013-06-18 13:39:00,
2013-06-18 08:44:00,63.6,52.5,30.11,SSE,155,0.0,5.0,67,0.00,,CLR,0.00,VWS V14.00,2013-06-18 13:44:00,
2013-06-18 08:49:00,63.8,53.0,30.11,SSE,153,0.0,5.0,68,0.00,,CLR,0.00,VWS V14.00,2013-06-18 13:49:00,
2013-06-18 08:54:00,64.0,53.2,30.11,SSE,154,0.0,2.0,68,0.00,,CLR,0.00,VWS V14.00,2013-06-18 13:54:00,
2013-06-18 08:59:00,64.4,52.8,30.11,SSE,151,4.0,6.0,66,0.00,,CLR,0.00,VWS V14.00,2013-06-18 13:59:00,
2013-06-18 09:04:00,64.8,52.8,30.11,SSE,149,0.0,5.0,65,0.00,,CLR,0.00,VWS V14.00,2013-06-18 14:04:00,
2013-06-18 09:09:00,65.2,52.3,30.11,SSE,147,0.0,7.0,63,0.00,,CLR,0.00,VWS V14.00,2013-06-18 14:09:00,
2013-06-18 09:14:00,65.4,52.9,30.11,SE,146,0.0,6.0,64,0.00,,CLR,0.00,VWS V14.00,2013-06-18 14:14:00,
2013-06-18 09:19:00,65.8,53.3,30.11,SE,146,3.0,6.0,64,0.00,,CLR,0.00,VWS V14.00,2013-06-18 14:19:00,
2013-06-18 09:24:00,66.1,52.7,30.11,SSE,150,0.0,7.0,62,0.00,,CLR,0.00,VWS V14.00,2013-06-18 14:24:00,
2013-06-18 09:29:00,66.2,53.2,30.11,SSE,149,3.0,7.0,63,0.00,,CLR,0.00,VWS V14.00,2013-06-18 14:29:00,
2013-06-18 09:34:00,66.1,52.3,30.11,SSE,150,0.0,5.0,61,0.00,,CLR,0.00,VWS V14.00,2013-06-18 14:34:00,
2013-06-18 09:39:00,66.0,52.6,30.11,SSE,151,0.0,5.0,62,0.00,,CLR,0.00,VWS V14.00,2013-06-18 14:39:00,
2013-06-18 09:44:00,66.4,53.0,30.11,SSE,153,0.0,0.0,62,0.00,,CLR,0.00,VWS V14.00,2013-06-18 14:44:00,
2013-06-18 09:49:00,66.8,53.8,30.11,SSE,151,0.0,7.0,63,0.00,,CLR,0.00,VWS V14.00,2013-06-18 14:49:00,
2013-06-18 09:54:00,67.1,53.7,30.10,SSE,151,0.0,0.0,62,0.00,,CLR,0.00,VWS V14.00,2013-06-18 14:54:00,
2013-06-18 09:59:00,67.3,53.4,30.10,SSE,151,0.0,0.0,61,0.00,,CLR,0.00,VWS V14.00,2013-06-18 14:59:00,
2013-06-18 10:04:00,67.4,53.0,30.10,SSE,151,0.0,2.0,60,0.00,,CLR,0.00,VWS V14.00,2013-06-18 15:04:00,
2013-06-18 10:09:00,67.9,54.4,30.10,SSE,151,0.0,4.0,62,0.00,,CLR,0.00,VWS V14.00,2013-06-18 15:09:00,
2013-06-18 10:14:00,68.5,55.4,30.10,SSE,151,0.0,0.0,63,0.00,,CLR,0.00,VWS V14.00,2013-06-18 15:14:00,
2013-06-18 10:19:00,68.8,55.3,30.10,SSE,151,0.0,1.0,62,0.00,,CLR,0.00,VWS V14.00,2013-06-18 15:19:00,
2013-06-18 10:24:00,69.1,55.1,30.09,SSE,151,0.0,4.0,61,0.00,,CLR,0.00,VWS V14.00,2013-06-18 15:24:00,
2013-06-18 10:29:00,69.4,54.9,30.09,SSE,151,0.0,4.0,60,0.00,,CLR,0.00,VWS V14.00,2013-06-18 15:29:00,
2013-06-18 10:34:00,69.6,55.1,30.09,SSE,151,0.0,4.0,60,0.00,,CLR,0.00,VWS V14.00,2013-06-18 15:34:00,
2013-06-18 10:39:00,69.9,55.4,30.09,SSE,147,0.0,8.0,60,0.00,,CLR,0.00,VWS V14.00,2013-06-18 15:39:00,
2013-06-18 10:44:00,69.6,55.1,30.09,SE,146,0.0,4.0,60,0.00,,CLR,0.00,VWS V14.00,2013-06-18 15:44:00,
2013-06-18 10:49:00,69.8,54.8,30.09,SE,146,0.0,5.0,59,0.00,,CLR,0.00,VWS V14.00,2013-06-18 15:49:00,
2013-06-18 10:54:00,70.0,55.0,30.08,SSE,147,0.0,7.0,59,0.00,,CLR,0.00,VWS V14.00,2013-06-18 15:54:00,
2013-06-18 10:59:00,70.4,55.9,30.08,SSE,147,0.0,7.0,60,0.00,,CLR,0.00,VWS V14.00,2013-06-18 15:59:00,
2013-06-18 11:04:00,70.5,54.5,30.08,SSE,148,0.0,3.0,57,0.00,,CLR,0.00,VWS V14.00,2013-06-18 16:04:00,
2013-06-18 11:09:00,70.7,55.2,30.08,SSE,154,0.0,7.0,58,0.00,,CLR,0.00,VWS V14.00,2013-06-18 16:09:00,
2013-06-18 11:14:00,70.9,53.4,30.08,SSE,154,0.0,6.0,54,0.00,,CLR,0.00,VWS V14.00,2013-06-18 16:14:00,
2013-06-18 11:19:00,70.9,54.0,30.08,SSE,154,0.0,6.0,55,0.00,,CLR,0.00,VWS V14.00,2013-06-18 16:19:00,
2013-06-18 11:24:00,71.2,55.7,30.08,SSE,154,0.0,5.0,58,0.00,,CLR,0.00,VWS V14.00,2013-06-18 16:24:00,
2013-06-18 11:29:00,72.0,56.0,30.08,SSE,154,0.0,5.0,57,0.00,,CLR,0.00,VWS V14.00,2013-06-18 16:29:00,
2013-06-18 11:34:00,72.6,54.5,30.08,SSE,156,0.0,4.0,53,0.00,,CLR,0.00,VWS V14.00,2013-06-18 16:34:00,
2013-06-18 11:40:00,72.4,54.8,30.07,SSE,154,0.0,7.0,54,0.00,,CLR,0.00,VWS V14.00,2013-06-18 16:40:00,
2013-06-18 11:44:00,72.6,55.5,30.07,SSE,155,0.0,4.0,55,0.00,,CLR,0.00,VWS V14.00,2013-06-18 16:44:00,
2013-06-18 11:50:00,72.7,55.6,30.08,SSE,155,0.0,4.0,55,0.00,,CLR,0.00,VWS V14.00,2013-06-18 16:50:00,
2013-06-18 11:55:00,73.2,54.5,30.08,SSE,155,0.0,0.0,52,0.00,,CLR,0.00,VWS V14.00,2013-06-18 16:55:00,
2013-06-18 12:00:00,73.5,55.3,30.07,SSE,153,0.0,1.0,53,0.00,,CLR,0.00,VWS V14.00,2013-06-18 17:00:00,
2013-06-18 12:05:00,74.0,55.8,30.07,SE,140,0.0,4.0,53,0.00,,CLR,0.00,VWS V14.00,2013-06-18 17:05:00,
2013-06-18 12:10:00,74.3,55.0,30.07,SE,140,0.0,0.0,51,0.00,,CLR,0.00,VWS V14.00,2013-06-18 17:10:00,
2013-06-18 12:15:00,74.5,55.7,30.07,SE,140,0.0,3.0,52,0.00,,CLR,0.00,VWS V14.00,2013-06-18 17:15:00,
2013-06-18 12:20:00,74.7,54.8,30.07,SE,130,0.0,0.0,50,0.00,,CLR,0.00,VWS V14.00,2013-06-18 17:20:00,
2013-06-18 12:25:00,74.4,54.0,30.07,SE,130,0.0,5.0,49,0.00,,CLR,0.00,VWS V14.00,2013-06-18 17:25:00,
2013-06-18 12:30:00,74.3,55.0,30.06,SE,130,0.0,0.0,51,0.00,,CLR,0.00,VWS V14.00,2013-06-18 17:30:00,
2013-06-18 12:35:00,74.7,55.4,30.06,SE,129,0.0,5.0,51,0.00,,CLR,0.00,VWS V14.00,2013-06-18 17:35:00,
2013-06-18 12:40:00,75.4,54.9,30.06,SE,127,0.0,0.0,49,0.00,,CLR,0.00,VWS V14.00,2013-06-18 17:40:00,
2013-06-18 12:45:00,75.4,54.9,30.06,SE,127,0.0,0.0,49,0.00,,CLR,0.00,VWS V14.00,2013-06-18 17:45:00,
2013-06-18 12:50:00,75.3,54.8,30.06,SE,129,0.0,0.0,49,0.00,,CLR,0.00,VWS V14.00,2013-06-18 17:50:00,
2013-06-18 12:55:00,75.3,55.9,30.06,SE,129,0.0,1.0,51,0.00,,CLR,0.00,VWS V14.00,2013-06-18 17:55:00,
2013-06-18 13:00:00,76.0,55.5,30.06,SE,128,0.0,1.0,49,0.00,,CLR,0.00,VWS V14.00,2013-06-18 18:00:00,
2013-06-18 13:05:00,76.3,54.0,30.05,SE,128,0.0,1.0,46,0.00,,CLR,0.00,VWS V14.00,2013-06-18 18:05:00,
2013-06-18 13:10:00,76.2,55.7,30.05,SE,128,5.0,6.0,49,0.00,,CLR,0.00,VWS V14.00,2013-06-18 18:10:00,
2013-06-18 13:15:00,75.9,53.7,30.05,SE,129,0.0,6.0,46,0.00,,CLR,0.00,VWS V14.00,2013-06-18 18:15:00,
2013-06-18 13:20:00,75.8,53.0,30.05,SE,129,0.0,0.0,45,0.00,,CLR,0.00,VWS V14.00,2013-06-18 18:20:00,
2013-06-18 13:25:00,76.4,55.8,30.04,SE,128,4.0,6.0,49,0.00,,CLR,0.00,VWS V14.00,2013-06-18 18:25:00,
2013-06-18 13:30:00,76.7,53.2,30.04,SE,129,0.0,0.0,44,0.00,,CLR,0.00,VWS V14.00,2013-06-18 18:30:00,
2013-06-18 13:35:00,76.6,54.9,30.04,SE,129,0.0,0.0,47,0.00,,CLR,0.00,VWS V14.00,2013-06-18 18:35:00,
2013-06-18 13:40:00,76.9,54.0,30.04,SE,128,1.0,1.0,45,0.00,,CLR,0.00,VWS V14.00,2013-06-18 18:40:00,
2013-06-18 13:45:00,76.6,53.7,30.04,SE,128,0.0,6.0,45,0.00,,CLR,0.00,VWS V14.00,2013-06-18 18:45:00,
2013-06-18 13:50:00,76.6,54.9,30.04,SE,128,0.0,1.0,47,0.00,,CLR,0.00,VWS V14.00,2013-06-18 18:50:00,
2013-06-18 13:55:00,77.0,53.4,30.04,SE,128,0.0,5.0,44,0.00,,CLR,0.00,VWS V14.00,2013-06-18 18:55:00,
2013-06-18 14:00:00,77.2,53.6,30.04,SE,132,0.0,1.0,44,0.00,,CLR,0.00,VWS V14.00,2013-06-18 19:00:00,
2013-06-18 14:05:00,77.0,53.4,30.04,SE,132,0.0,1.0,44,0.00,,CLR,0.00,VWS V14.00,2013-06-18 19:05:00,
2013-06-18 14:10:00,77.3,54.9,30.03,SE,132,0.0,0.0,46,0.00,,CLR,0.00,VWS V14.00,2013-06-18 19:10:00,
2013-06-18 14:15:00,77.7,52.8,30.04,SE,132,0.0,0.0,42,0.00,,CLR,0.00,VWS V14.00,2013-06-18 19:15:00,
2013-06-18 14:20:00,78.1,55.7,30.04,SE,131,0.0,0.0,46,0.00,,CLR,0.00,VWS V14.00,2013-06-18 19:20:00,
2013-06-18 14:25:00,78.2,53.9,30.03,SE,131,0.0,2.0,43,0.00,,CLR,0.00,VWS V14.00,2013-06-18 19:25:00,
2013-06-18 14:30:00,78.2,54.5,30.03,SE,127,1.0,1.0,44,0.00,,CLR,0.00,VWS V14.00,2013-06-18 19:30:00,
2013-06-18 14:35:00,77.8,53.5,30.03,SE,127,0.0,1.0,43,0.00,,CLR,0.00,VWS V14.00,2013-06-18 19:35:00,
2013-06-18 14:40:00,77.7,52.8,30.03,SE,127,0.0,0.0,42,0.00,,CLR,0.00,VWS V14.00,2013-06-18 19:40:00,
2013-06-18 14:45:00,77.9,52.3,30.03,SE,127,0.0,0.0,41,0.00,,CLR,0.00,VWS V14.00,2013-06-18 19:45:00,
2013-06-18 14:50:00,78.2,53.9,30.03,SE,127,0.0,0.0,43,0.00,,CLR,0.00,VWS V14.00,2013-06-18 19:50:00,
2013-06-18 14:55:00,78.8,53.8,30.03,SE,127,2.0,3.0,42,0.00,,CLR,0.00,VWS V14.00,2013-06-18 19:55:00,
2013-06-18 15:00:00,78.9,55.2,30.03,SE,125,1.0,2.0,44,0.00,,CLR,0.00,VWS V14.00,2013-06-18 20:00:00,
2013-06-18 15:05:00,79.0,53.3,30.03,SE,124,0.0,4.0,41,0.00,,CLR,0.00,VWS V14.00,2013-06-18 20:05:00,
2013-06-18 15:10:00,79.1,54.1,30.03,NE,44,0.0,5.0,42,0.00,,CLR,0.00,VWS V14.00,2013-06-18 20:10:00,
2013-06-18 15:15:00,79.3,53.6,30.03,NE,41,0.0,5.0,41,0.00,,CLR,0.00,VWS V14.00,2013-06-18 20:15:00,
2013-06-18 15:20:00,79.2,53.5,30.03,North,0,0.0,0.0,41,0.00,,CLR,0.00,VWS V14.00,2013-06-18 20:20:00,
2013-06-18 15:25:00,79.4,53.7,30.03,North,0,0.0,4.0,41,0.00,,CLR,0.00,VWS V14.00,2013-06-18 20:25:00,
2013-06-18 15:30:00,79.1,52.7,30.03,North,0,0.0,0.0,40,0.00,,CLR,0.00,VWS V14.00,2013-06-18 20:30:00,
2013-06-18 15:35:00,78.8,52.5,30.03,North,0,0.0,0.0,40,0.00,,CLR,0.00,VWS V14.00,2013-06-18 20:35:00,
2013-06-18 15:40:00,78.9,54.5,30.02,North,0,0.0,0.0,43,0.00,,CLR,0.00,VWS V14.00,2013-06-18 20:40:00,
2013-06-18 15:45:00,79.0,53.3,30.02,North,0,0.0,2.0,41,0.00,,CLR,0.00,VWS V14.00,2013-06-18 20:45:00,
2013-06-18 15:51:00,78.7,53.0,30.02,SE,130,0.0,8.0,41,0.00,,CLR,0.00,VWS V14.00,2013-06-18 20:51:00,
2013-06-18 15:56:00,78.4,52.1,30.01,SE,130,0.0,8.0,40,0.00,,CLR,0.00,VWS V14.00,2013-06-18 20:56:00,
2013-06-18 16:01:00,78.7,52.4,30.01,SE,130,0.0,0.0,40,0.00,,CLR,0.00,VWS V14.00,2013-06-18 21:01:00,
2013-06-18 16:06:00,79.3,53.6,30.01,SE,130,0.0,0.0,41,0.00,,SCT080,0.00,VWS V14.00,2013-06-18 21:06:00,
2013-06-18 16:11:00,79.7,53.3,30.01,SE,131,0.0,1.0,40,0.00,,SCT080,0.00,VWS V14.00,2013-06-18 21:11:00,
2013-06-18 16:16:00,80.1,52.9,30.01,SE,130,0.0,1.0,39,0.00,,SCT080,0.00,VWS V14.00,2013-06-18 21:16:00,
2013-06-18 16:21:00,80.4,53.2,30.00,SSE,150,0.0,5.0,39,0.00,,SCT080,0.00,VWS V14.00,2013-06-18 21:21:00,
2013-06-18 16:26:00,80.1,53.6,30.00,SE,142,0.0,8.0,40,0.00,,SCT080,0.00,VWS V14.00,2013-06-18 21:26:00,
2013-06-18 16:31:00,79.9,52.0,30.00,SE,142,0.0,0.0,38,0.00,,SCT080,0.00,VWS V14.00,2013-06-18 21:31:00,
2013-06-18 16:36:00,79.9,52.8,30.00,SE,126,0.0,3.0,39,0.00,,SCT080,0.00,VWS V14.00,2013-06-18 21:36:00,
2013-06-18 16:41:00,80.1,52.9,30.00,ESE,117,0.0,1.0,39,0.00,,SCT080,0.00,VWS V14.00,2013-06-18 21:41:00,
2013-06-18 16:46:00,80.3,53.1,30.00,ESE,117,0.0,1.0,39,0.00,,SCT080,0.00,VWS V14.00,2013-06-18 21:46:00,
2013-06-18 16:51:00,80.4,53.2,30.00,ESE,117,0.0,0.0,39,0.00,,SCT080,0.00,VWS V14.00,2013-06-18 21:51:00,
2013-06-18 16:56:00,81.1,54.5,30.00,ESE,111,0.0,5.0,40,0.00,,SCT080,0.00,VWS V14.00,2013-06-18 21:56:00,
2013-06-18 17:01:00,81.3,53.3,30.00,ESE,111,0.0,0.0,38,0.00,,SCT080,0.00,VWS V14.00,2013-06-18 22:01:00,
2013-06-18 17:06:00,81.1,53.8,29.99,ESE,111,0.0,0.0,39,0.00,,SCT080,0.00,VWS V14.00,2013-06-18 22:06:00,
2013-06-18 17:11:00,81.0,55.1,29.99,ESE,111,0.0,0.0,41,0.00,,FEW085,0.00,VWS V14.00,2013-06-18 22:11:00,
2013-06-18 17:16:00,81.0,55.1,29.99,ESE,111,0.0,0.0,41,0.00,,FEW085,0.00,VWS V14.00,2013-06-18 22:16:00,
2013-06-18 17:21:00,81.3,54.0,29.99,ESE,111,0.0,4.0,39,0.00,,FEW085,0.00,VWS V14.00,2013-06-18 22:21:00,
2013-06-18 17:26:00,81.6,54.3,29.99,ESE,111,4.0,5.0,39,0.00,,FEW085,0.00,VWS V14.00,2013-06-18 22:26:00,
2013-06-18 17:31:00,81.1,52.4,29.99,ESE,116,0.0,8.0,37,0.00,,FEW085,0.00,VWS V14.00,2013-06-18 22:31:00,
2013-06-18 17:36:00,79.6,53.2,29.99,ESE,118,0.0,8.0,40,0.00,,FEW085,0.00,VWS V14.00,2013-06-18 22:36:00,
2013-06-18 17:41:00,79.0,52.6,29.99,SE,138,0.0,8.0,40,0.00,,FEW085,0.00,VWS V14.00,2013-06-18 22:41:00,
2013-06-18 17:46:00,79.1,53.4,29.99,SE,138,0.0,8.0,41,0.00,,FEW085,0.00,VWS V14.00,2013-06-18 22:46:00,
2013-06-18 17:51:00,78.9,53.2,29.99,SE,146,4.0,10.0,41,0.00,,FEW085,0.00,VWS V14.00,2013-06-18 22:51:00,
2013-06-18 17:56:00,78.8,52.5,29.99,SSE,152,0.0,10.0,40,0.00,,FEW085,0.00,VWS V14.00,2013-06-18 22:56:00,
2013-06-18 18:01:00,78.9,53.2,29.98,SE,134,0.0,1.0,41,0.00,,FEW085,0.00,VWS V14.00,2013-06-18 23:01:00,
2013-06-18 18:06:00,79.0,53.3,29.98,SE,134,0.0,2.0,41,0.00,,SCT090,0.00,VWS V14.00,2013-06-18 23:06:00,
2013-06-18 18:11:00,79.2,53.5,29.98,ESE,114,9.0,9.0,41,0.00,,SCT090,0.00,VWS V14.00,2013-06-18 23:11:00,
2013-06-18 18:16:00,78.8,51.8,29.98,SSE,149,0.0,11.0,39,0.00,,SCT090,0.00,VWS V14.00,2013-06-18 23:16:00,
2013-06-18 18:21:00,78.4,53.4,29.97,SE,146,0.0,0.0,42,0.00,,SCT090,0.00,VWS V14.00,2013-06-18 23:21:00,
2013-06-18 18:26:00,77.8,52.9,29.97,SE,145,0.0,7.0,42,0.00,,SCT090,0.00,VWS V14.00,2013-06-18 23:26:00,
2013-06-18 18:31:00,77.6,54.0,29.97,SE,146,0.0,4.0,44,0.00,,SCT090,0.00,VWS V14.00,2013-06-18 23:31:00,
2013-06-18 18:36:00,77.7,52.8,29.97,SSE,163,9.0,12.0,42,0.00,,SCT090,0.00,VWS V14.00,2013-06-18 23:36:00,
2013-06-18 18:41:00,77.6,52.7,29.97,SSE,154,0.0,0.0,42,0.00,,SCT090,0.00,VWS V14.00,2013-06-18 23:41:00,
2013-06-18 18:46:00,77.9,53.0,29.97,SE,133,7.0,8.0,42,0.00,,SCT090,0.00,VWS V14.00,2013-06-18 23:46:00,
2013-06-18 18:51:00,78.2,53.2,29.97,SE,126,0.0,3.0,42,0.00,,SCT090,0.00,VWS V14.00,2013-06-18 23:51:00,
2013-06-18 18:56:00,78.0,53.1,29.97,SE,129,0.0,7.0,42,0.00,,SCT090,0.00,VWS V14.00,2013-06-18 23:56:00,
2013-06-18 19:01:00,78.1,53.8,29.97,ESE,120,3.0,7.0,43,0.00,,SCT090,0.00,VWS V14.00,2013-06-19 00:01:00,
2013-06-18 19:06:00,78.0,53.1,29.97,SE,124,0.0,10.0,42,0.00,,FEW085,0.00,VWS V14.00,2013-06-19 00:06:00,
2013-06-18 19:11:00,77.9,53.6,29.97,SE,125,0.0,3.0,43,0.00,,FEW085,0.00,VWS V14.00,2013-06-19 00:11:00,
2013-06-18 19:16:00,77.8,53.5,29.97,SE,125,0.0,4.0,43,0.00,,FEW085,0.00,VWS V14.00,2013-06-19 00:16:00,
2013-06-18 19:21:00,77.5,53.3,29.97,SE,125,0.0,0.0,43,0.00,,FEW085,0.00,VWS V14.00,2013-06-19 00:21:00,
2013-06-18 19:26:00,77.3,53.1,29.97,SE,130,0.0,7.0,43,0.00,,FEW085,0.00,VWS V14.00,2013-06-19 00:26:00,
2013-06-18 19:31:00,77.3,53.7,29.96,SE,133,0.0,7.0,44,0.00,,FEW085,0.00,VWS V14.00,2013-06-19 00:31:00,
2013-06-18 19:36:00,77.0,53.4,29.96,SSE,150,0.0,8.0,44,0.00,,FEW085,0.00,VWS V14.00,2013-06-19 00:36:00,
2013-06-18 19:41:00,76.6,53.1,29.96,SE,146,0.0,3.0,44,0.00,,FEW085,0.00,VWS V14.00,2013-06-19 00:41:00,
2013-06-18 19:46:00,76.3,52.8,29.97,SE,133,4.0,9.0,44,0.00,,FEW085,0.00,VWS V14.00,2013-06-19 00:46:00,
2013-06-18 19:51:00,76.1,53.2,29.97,SE,135,0.0,0.0,45,0.00,,FEW085,0.00,VWS V14.00,2013-06-19 00:51:00,
2013-06-18 19:56:00,75.9,53.7,29.96,SE,135,3.0,6.0,46,0.00,,FEW085,0.00,VWS V14.00,2013-06-19 00:56:00,
2013-06-18 20:01:00,75.8,53.0,29.96,SE,132,0.0,0.0,45,0.00,,FEW085,0.00,VWS V14.00,2013-06-19 01:01:00,
2013-06-18 20:06:00,75.8,52.4,29.96,ESE,122,0.0,8.0,44,0.00,,FEW085,0.00,VWS V14.00,2013-06-19 01:06:00,
2013-06-18 20:11:00,75.8,53.0,29.96,ESE,121,0.0,4.0,45,0.00,,CLR,0.00,VWS V14.00,2013-06-19 01:11:00,
2013-06-18 20:16:00,75.7,53.5,29.96,ESE,121,0.0,6.0,46,0.00,,CLR,0.00,VWS V14.00,2013-06-19 01:16:00,
2013-06-18 20:21:00,75.6,53.4,29.96,SE,124,3.0,6.0,46,0.00,,CLR,0.00,VWS V14.00,2013-06-19 01:21:00,
2013-06-18 20:26:00,75.4,52.6,29.96,SE,131,0.0,9.0,45,0.00,,CLR,0.00,VWS V14.00,2013-06-19 01:26:00,
2013-06-18 20:32:00,75.3,53.1,29.95,SE,136,0.0,7.0,46,0.00,,CLR,0.00,VWS V14.00,2013-06-19 01:32:00,
2013-06-18 20:37:00,75.1,52.9,29.95,SE,131,0.0,8.0,46,0.00,,CLR,0.00,VWS V14.00,2013-06-19 01:37:00,
2013-06-18 20:41:00,74.9,53.3,29.95,SE,130,0.0,4.0,47,0.00,,CLR,0.00,VWS V14.00,2013-06-19 01:41:00,
2013-06-18 20:47:00,74.6,53.6,29.95,SE,127,0.0,6.0,48,0.00,,CLR,0.00,VWS V14.00,2013-06-19 01:47:00,
2013-06-18 20:52:00,74.2,53.8,29.95,SE,126,0.0,0.0,49,0.00,,CLR,0.00,VWS V14.00,2013-06-19 01:52:00,
2013-06-18 20:57:00,73.9,53.6,29.95,SE,125,1.0,3.0,49,0.00,,CLR,0.00,VWS V14.00,2013-06-19 01:57:00,
2013-06-18 21:02:00,73.5,53.7,29.95,SE,124,0.0,4.0,50,0.00,,CLR,0.00,VWS V14.00,2013-06-19 02:02:00,
2013-06-18 21:07:00,73.2,53.5,29.95,SE,124,0.0,4.0,50,0.00,,CLR,0.00,VWS V14.00,2013-06-19 02:07:00,
2013-06-18 21:12:00,72.9,53.2,29.95,ESE,122,0.0,0.0,50,0.00,,CLR,0.00,VWS V14.00,2013-06-19 02:12:00,
2013-06-18 21:17:00,72.7,53.0,29.95,ESE,122,0.0,3.0,50,0.00,,CLR,0.00,VWS V14.00,2013-06-19 02:17:00,
2013-06-18 21:22:00,72.4,53.3,29.96,ESE,122,0.0,0.0,51,0.00,,CLR,0.00,VWS V14.00,2013-06-19 02:22:00,
2013-06-18 21:27:00,72.2,53.6,29.96,ESE,122,0.0,0.0,52,0.00,,CLR,0.00,VWS V14.00,2013-06-19 02:27:00,
2013-06-18 21:32:00,72.1,53.5,29.96,SE,125,2.0,6.0,52,0.00,,CLR,0.00,VWS V14.00,2013-06-19 02:32:00,
2013-06-18 21:37:00,71.9,53.3,29.96,SE,126,6.0,6.0,52,0.00,,CLR,0.00,VWS V14.00,2013-06-19 02:37:00,
2013-06-18 21:42:00,71.9,53.3,29.97,SE,131,0.0,5.0,52,0.00,,CLR,0.00,VWS V14.00,2013-06-19 02:42:00,
2013-06-18 21:47:00,71.7,53.2,29.97,SE,131,3.0,7.0,52,0.00,,CLR,0.00,VWS V14.00,2013-06-19 02:47:00,
2013-06-18 21:52:00,71.5,53.5,29.97,SE,131,0.0,5.0,53,0.00,,CLR,0.00,VWS V14.00,2013-06-19 02:52:00,
2013-06-18 21:57:00,71.3,53.3,29.97,SE,131,0.0,5.0,53,0.00,,CLR,0.00,VWS V14.00,2013-06-19 02:57:00,
2013-06-18 22:02:00,71.1,53.1,29.97,SE,131,0.0,2.0,53,0.00,,CLR,0.00,VWS V14.00,2013-06-19 03:02:00,
2013-06-18 22:07:00,70.8,53.3,29.97,SE,131,0.0,4.0,54,0.00,,CLR,0.00,VWS V14.00,2013-06-19 03:07:00,
2013-06-18 22:12:00,70.5,53.6,29.97,SE,131,0.0,1.0,55,0.00,,CLR,0.00,VWS V14.00,2013-06-19 03:12:00,
2013-06-18 22:17:00,70.3,53.4,29.97,SE,131,0.0,1.0,55,0.00,,CLR,0.00,VWS V14.00,2013-06-19 03:17:00,
2013-06-18 22:22:00,70.1,53.2,29.97,SE,131,0.0,0.0,55,0.00,,CLR,0.00,VWS V14.00,2013-06-19 03:22:00,
2013-06-18 22:27:00,70.0,53.6,29.97,SE,131,0.0,1.0,56,0.00,,CLR,0.00,VWS V14.00,2013-06-19 03:27:00,
2013-06-18 22:32:00,69.8,53.4,29.97,SE,131,0.0,0.0,56,0.00,,CLR,0.00,VWS V14.00,2013-06-19 03:32:00,
2013-06-18 22:37:00,69.6,53.2,29.97,SE,131,0.0,4.0,56,0.00,,CLR,0.00,VWS V14.00,2013-06-19 03:37:00,
2013-06-18 22:42:00,69.4,53.5,29.98,SE,131,0.0,0.0,57,0.00,,CLR,0.00,VWS V14.00,2013-06-19 03:42:00,
2013-06-18 22:47:00,69.2,53.3,29.97,SE,133,0.0,4.0,57,0.00,,CLR,0.00,VWS V14.00,2013-06-19 03:47:00,
2013-06-18 22:52:00,69.2,53.3,29.97,SE,133,0.0,1.0,57,0.00,,CLR,0.00,VWS V14.00,2013-06-19 03:52:00,
2013-06-18 22:57:00,69.1,53.7,29.97,SE,133,0.0,6.0,58,0.00,,CLR,0.00,VWS V14.00,2013-06-19 03:57:00,
2013-06-18 23:01:00,68.9,53.5,29.97,SE,132,0.0,0.0,58,0.00,,CLR,0.00,VWS V14.00,2013-06-19 04:01:00,
2013-06-18 23:06:00,68.6,53.7,29.97,SE,132,0.0,4.0,59,0.00,,BKN090,0.00,VWS V14.00,2013-06-19 04:06:00,
2013-06-18 23:11:00,68.4,54.0,29.97,SE,133,1.0,2.0,60,0.00,,BKN090,0.00,VWS V14.00,2013-06-19 04:11:00,
2013-06-18 23:16:00,68.3,53.9,29.97,SE,133,0.0,4.0,60,0.00,,BKN090,0.00,VWS V14.00,2013-06-19 04:16:00,
2013-06-18 23:21:00,68.2,53.8,29.96,SE,133,0.0,0.0,60,0.00,,BKN090,0.00,VWS V14.00,2013-06-19 04:21:00,
2013-06-18 23:26:00,68.1,53.7,29.96,SE,133,1.0,1.0,60,0.00,,BKN090,0.00,VWS V14.00,2013-06-19 04:26:00,
2013-06-18 23:31:00,68.0,53.6,29.96,SE,133,0.0,0.0,60,0.00,,BKN090,0.00,VWS V14.00,2013-06-19 04:31:00,
2013-06-18 23:36:00,67.9,54.0,29.96,SE,133,2.0,7.0,61,0.00,,BKN090,0.00,VWS V14.00,2013-06-19 04:36:00,
2013-06-18 23:41:00,67.7,53.8,29.96,SE,133,0.0,3.0,61,0.00,,BKN090,0.00,VWS V14.00,2013-06-19 04:41:00,
2013-06-18 23:46:00,67.5,54.0,29.96,SE,133,0.0,3.0,62,0.00,,BKN090,0.00,VWS V14.00,2013-06-19 04:46:00,
2013-06-18 23:51:00,67.3,53.8,29.96,SE,133,0.0,0.0,62,0.00,,BKN090,0.00,VWS V14.00,2013-06-19 04:51:00,
2013-06-18 23:56:00,67.2,53.8,29.96,SE,134,0.0,3.0,62,0.00,,BKN090,0.00,VWS V14.00,2013-06-19 04:56:00,